createdAt,value
2023-04-02T00:12:56.205Z,5.83
2023-04-02T00:42:59.078Z,4.50
2023-04-02T01:13:02.470Z,4.00
2023-04-02T01:43:05.431Z,4.93
2023-04-02T02:13:08.408Z,4.30
2023-04-02T02:43:11.844Z,3.77
2023-04-02T03:13:16.243Z,3.70
2023-04-02T03:43:19.828Z,2.17
2023-04-02T04:13:23.008Z,2.13
2023-04-02T04:43:26.281Z,1.60
2023-04-02T05:13:30.075Z,1.70
2023-04-02T05:43:33.835Z,1.20
2023-04-02T06:13:37.200Z,2.25
2023-04-02T06:43:40.587Z,1.33
2023-04-02T07:13:43.505Z,1.43
2023-04-02T07:43:46.768Z,1.83
2023-04-02T08:13:50.199Z,1.50
2023-04-02T08:43:53.755Z,1.30
2023-04-02T09:13:57.571Z,1.40
2023-04-02T09:44:00.953Z,1.83
2023-04-02T10:14:04.414Z,1.47
2023-04-02T10:44:18.873Z,1.90
2023-04-02T11:14:23.606Z,1.63
2023-04-02T11:44:26.833Z,1.85
2023-04-02T12:14:30.122Z,1.47
2023-04-02T12:44:33.427Z,1.67
2023-04-02T13:14:36.398Z,1.43
2023-04-02T13:44:39.645Z,1.50
2023-04-02T14:14:43.695Z,1.70
2023-04-02T14:44:46.492Z,1.63
2023-04-02T15:14:50.711Z,2.40
2023-04-02T15:44:53.668Z,1.70
2023-04-02T16:14:57.929Z,1.90
2023-04-02T16:45:00.778Z,1.43
2023-04-02T17:15:09.332Z,1.27
2023-04-02T17:45:17.212Z,1.70
2023-04-02T18:15:21.663Z,2.03
2023-04-02T18:45:24.537Z,1.60
2023-04-02T19:15:28.259Z,1.13
2023-04-02T19:45:31.151Z,1.53
2023-04-02T20:15:34.535Z,2.73
2023-04-02T20:45:38.177Z,2.30
2023-04-02T21:15:41.189Z,1.70
2023-04-02T21:45:44.160Z,2.03
2023-04-02T22:15:47.582Z,1.93
2023-04-02T22:45:50.418Z,2.05
2023-04-02T23:15:53.648Z,1.30
2023-04-02T23:45:57.258Z,1.60
